Time;durP1;ratioP1;P1;durP2;ratioP2;P2;SDS_P1;SDS_P2;PMS_P1;PMS_P2;Temp;Humidity;BMP_temperature;BMP_pressure;BME280_temperature;BME280_humidity;BME280_pressure;Samples;Min_cycle;Max_cycle;Signal;HPM_P1;HPM_P2
2024/04/08 00:00:20;;;;;;;12.00;2.50;;;19.70;94.10;;;;;;5105698;28;20597;-59
2024/04/08 00:02:49;;;;;;;13.60;2.65;;;19.60;94.20;;;;;;5105057;28;20231;-59
2024/04/08 00:05:15;;;;;;;8.85;2.50;;;19.60;94.60;;;;;;5106133;28;20255;-59
2024/04/08 00:07:42;;;;;;;13.15;2.58;;;19.50;94.70;;;;;;5107793;28;20231;-59
2024/04/08 00:10:08;;;;;;;10.55;2.35;;;19.40;94.60;;;;;;5105864;28;20204;-59
2024/04/08 00:12:34;;;;;;;12.38;2.67;;;19.40;94.80;;;;;;5103899;28;20197;-59
2024/04/08 00:15:00;;;;;;;9.63;2.65;;;19.30;94.80;;;;;;5103899;28;20196;-60
2024/04/08 00:17:28;;;;;;;7.97;2.30;;;19.30;94.90;;;;;;5107107;28;20205;-59
2024/04/08 00:19:55;;;;;;;12.23;2.65;;;19.30;94.80;;;;;;5106740;28;20203;-59
2024/04/08 00:22:22;;;;;;;7.88;2.63;;;19.30;94.90;;;;;;5103602;28;20196;-59
2024/04/08 00:24:51;;;;;;;8.30;2.75;;;19.20;95.00;;;;;;5103596;28;20227;-59
2024/04/08 00:27:17;;;;;;;10.52;2.63;;;19.10;95.20;;;;;;5106023;28;20226;-59
2024/04/08 00:29:43;;;;;;;7.32;2.67;;;19.10;95.30;;;;;;5106732;28;20718;-59
2024/04/08 00:32:10;;;;;;;10.80;2.75;;;19.00;95.60;;;;;;5105112;28;20199;-58
2024/04/08 00:34:37;;;;;;;11.48;2.65;;;18.80;95.90;;;;;;5103223;28;20257;-59
2024/04/08 00:37:04;;;;;;;8.80;2.50;;;18.80;96.00;;;;;;5103866;28;20287;-59
2024/04/08 00:39:30;;;;;;;13.02;2.63;;;18.70;95.90;;;;;;5106703;28;20208;-59
2024/04/08 00:41:56;;;;;;;7.38;2.50;;;18.70;96.00;;;;;;5106773;28;20293;-59
2024/04/08 00:44:22;;;;;;;7.13;2.53;;;18.50;96.20;;;;;;5103043;28;20265;-59
2024/04/08 00:46:49;;;;;;;12.60;2.30;;;18.40;96.40;;;;;;5103157;28;20204;-59
2024/04/08 00:49:15;;;;;;;4.80;2.20;;;18.40;96.30;;;;;;5104822;28;20208;-58
2024/04/08 00:51:45;;;;;;;6.93;2.88;;;18.50;96.30;;;;;;5106238;28;20208;-60
2024/04/08 00:54:11;;;;;;;13.73;2.50;;;18.60;96.20;;;;;;5104812;28;20490;-58
2024/04/08 00:56:38;;;;;;;6.45;2.13;;;18.60;96.30;;;;;;5103128;28;20287;-58
2024/04/08 00:59:06;;;;;;;8.68;2.10;;;18.60;96.30;;;;;;5103259;28;20208;-59
2024/04/08 01:01:33;;;;;;;7.72;2.22;;;18.60;96.20;;;;;;5106360;28;20191;-58
2024/04/08 01:03:59;;;;;;;9.25;2.45;;;18.60;96.30;;;;;;5106140;28;20227;-58
2024/04/08 01:06:26;;;;;;;14.50;3.35;;;18.60;96.40;;;;;;5103250;28;20203;-59
2024/04/08 01:08:53;;;;;;;6.97;2.33;;;18.60;96.90;;;;;;5102636;28;20204;-59
2024/04/08 01:11:19;;;;;;;8.18;2.40;;;18.60;96.90;;;;;;5105240;28;20208;-59
2024/04/08 01:13:45;;;;;;;10.57;2.72;;;18.50;97.00;;;;;;5106166;28;20231;-58
2024/04/08 01:16:12;;;;;;;8.73;2.50;;;18.50;97.10;;;;;;5104429;28;20203;-58
2024/04/08 01:18:38;;;;;;;10.65;2.75;;;18.50;97.00;;;;;;5102175;28;20291;-59
2024/04/08 01:21:05;;;;;;;11.02;3.00;;;18.50;96.80;;;;;;5103030;28;20250;-59
2024/04/08 01:23:36;;;;;;;8.00;2.78;;;18.60;97.10;;;;;;5105602;28;20230;-59
2024/04/08 01:26:03;;;;;;;5.93;2.45;;;18.50;96.70;;;;;;5105517;28;20581;-59
2024/04/08 01:28:29;;;;;;;9.65;2.50;;;18.50;96.60;;;;;;5102298;28;20204;-59
2024/04/08 01:30:59;;;;;;;10.32;2.58;;;18.50;96.60;;;;;;5102135;28;20552;-59
2024/04/08 01:33:25;;;;;;;7.25;2.28;;;18.50;96.60;;;;;;5105345;28;20623;-59
2024/04/08 01:35:53;;;;;;;6.22;2.50;;;18.60;96.90;;;;;;5105828;28;20192;-59
2024/04/08 01:38:19;;;;;;;7.13;1.98;;;18.50;96.90;;;;;;5102754;28;20214;-59
2024/04/08 01:40:47;;;;;;;11.85;2.65;;;18.50;97.10;;;;;;5102493;28;20204;-59
2024/04/08 01:43:13;;;;;;;7.32;2.42;;;18.40;97.60;;;;;;5103480;28;20220;-59
2024/04/08 01:45:40;;;;;;;13.05;2.22;;;18.30;97.70;;;;;;5105230;28;20265;-59
2024/04/08 01:48:06;;;;;;;10.05;2.53;;;18.30;97.40;;;;;;5104522;28;20214;-58
2024/04/08 01:50:33;;;;;;;11.02;2.22;;;18.30;97.30;;;;;;5102206;28;20207;-58
2024/04/08 01:52:58;;;;;;;13.23;2.50;;;18.30;97.30;;;;;;5101551;28;20282;-58
2024/04/08 01:55:25;;;;;;;8.73;2.60;;;18.30;97.30;;;;;;5105005;28;20188;-59
2024/04/08 01:57:52;;;;;;;7.80;2.60;;;18.30;97.30;;;;;;5105113;28;20208;-58
2024/04/08 02:00:19;;;;;;;5.72;2.25;;;18.30;97.30;;;;;;5102933;28;20215;-60
2024/04/08 02:02:45;;;;;;;9.63;2.42;;;18.40;97.30;;;;;;5100655;28;20736;-58
2024/04/08 02:05:12;;;;;;;9.27;2.00;;;18.40;97.30;;;;;;5102598;28;20220;-59
2024/04/08 02:07:39;;;;;;;8.02;2.28;;;18.40;97.30;;;;;;5105086;28;20208;-58
2024/04/08 02:10:06;;;;;;;10.63;2.70;;;18.40;97.30;;;;;;5104603;27;20207;-59
2024/04/08 02:12:32;;;;;;;9.38;2.33;;;18.40;97.50;;;;;;5101733;28;20200;-58
2024/04/08 02:15:00;;;;;;;8.38;2.50;;;18.30;97.60;;;;;;5101351;28;20219;-58
2024/04/08 02:17:26;;;;;;;6.15;2.10;;;18.30;97.60;;;;;;5104627;28;20269;-58
2024/04/08 02:19:52;;;;;;;12.13;2.45;;;18.30;97.70;;;;;;5104649;28;20559;-58
2024/04/08 02:22:18;;;;;;;8.38;2.42;;;18.30;97.70;;;;;;5102441;28;20203;-58
2024/04/08 02:24:45;;;;;;;6.10;2.13;;;18.20;97.70;;;;;;5101035;28;20231;-58
2024/04/08 02:27:10;;;;;;;9.85;2.63;;;18.20;97.80;;;;;;5102237;28;20212;-58
2024/04/08 02:29:37;;;;;;;10.50;1.98;;;18.20;98.00;;;;;;5104289;28;20305;-58
2024/04/08 02:32:05;;;;;;;6.63;2.83;;;18.10;98.00;;;;;;5104543;28;20256;-59
2024/04/08 02:34:32;;;;;;;11.15;2.88;;;18.10;98.00;;;;;;5101107;28;20316;-58
2024/04/08 02:36:58;;;;;;;9.63;2.10;;;18.10;98.00;;;;;;5100839;28;20208;-59
2024/04/08 02:39:24;;;;;;;8.68;2.20;;;18.10;98.00;;;;;;5103388;28;20207;-59
2024/04/08 02:41:50;;;;;;;10.13;2.83;;;18.10;98.00;;;;;;5104332;28;20207;-59
2024/04/08 02:44:16;;;;;;;9.60;2.28;;;18.00;98.10;;;;;;5102359;28;20723;-59
2024/04/08 02:46:42;;;;;;;6.82;2.30;;;17.90;98.60;;;;;;5101070;28;20208;-58
2024/04/08 02:49:10;;;;;;;5.53;2.13;;;17.90;99.00;;;;;;5101223;28;20208;-58
2024/04/08 02:51:36;;;;;;;12.00;2.42;;;17.90;98.90;;;;;;5104178;28;20227;-58
2024/04/08 02:54:03;;;;;;;11.98;2.20;;;17.90;99.00;;;;;;5104036;28;20704;-58
2024/04/08 02:56:29;;;;;;;6.00;2.35;;;18.00;99.20;;;;;;5104140;28;20200;-58
2024/04/08 02:58:55;;;;;;;11.10;2.95;;;18.00;99.30;;;;;;5103832;28;20195;-59
2024/04/08 03:01:21;;;;;;;9.02;2.58;;;18.00;99.50;;;;;;5101471;28;20215;-59
2024/04/08 03:03:48;;;;;;;7.80;2.40;;;18.00;99.80;;;;;;5100338;28;20224;-58
2024/04/08 03:06:16;;;;;;;9.20;2.50;;;17.90;99.90;;;;;;5101684;28;20290;-59
2024/04/08 03:08:44;;;;;;;10.13;2.60;;;17.90;99.90;;;;;;5103779;28;20213;-57
2024/04/08 03:11:09;;;;;;;10.52;2.60;;;17.80;99.90;;;;;;5102936;28;20584;-58
2024/04/08 03:13:37;;;;;;;6.20;2.35;;;17.80;99.90;;;;;;5100391;28;20216;-58
2024/04/08 03:16:04;;;;;;;8.45;2.50;;;17.70;99.90;;;;;;5100406;28;20674;-58
2024/04/08 03:18:31;;;;;;;10.15;2.60;;;17.60;99.90;;;;;;5100182;28;20231;-59
2024/04/08 03:20:58;;;;;;;7.90;2.53;;;17.60;99.90;;;;;;5100455;28;20208;-58
2024/04/08 03:23:27;;;;;;;8.25;2.20;;;17.50;99.90;;;;;;5102734;28;20223;-59
2024/04/08 03:25:58;;;;;;;8.13;2.55;;;17.40;99.90;;;;;;5103748;28;20296;-58
2024/04/08 03:28:25;;;;;;;10.43;2.90;;;17.30;99.90;;;;;;5100738;28;20346;-59
2024/04/08 03:30:51;;;;;;;10.98;2.70;;;17.20;99.90;;;;;;5100577;28;20215;-58
2024/04/08 03:33:20;;;;;;;6.25;2.53;;;17.10;99.90;;;;;;5101907;28;20314;-58
2024/04/08 03:35:47;;;;;;;8.00;2.75;;;17.00;99.90;;;;;;5103633;28;20202;-60
2024/04/08 03:38:14;;;;;;;6.10;2.38;;;17.00;99.90;;;;;;5101870;28;20204;-58
2024/04/08 03:40:42;;;;;;;8.90;2.70;;;16.90;99.90;;;;;;5100523;28;20207;-58
2024/04/08 03:43:08;;;;;;;6.32;2.13;;;16.80;99.90;;;;;;5100867;28;20223;-58
2024/04/08 03:45:37;;;;;;;11.63;2.80;;;16.70;99.90;;;;;;5104281;28;20222;-60
2024/04/08 03:48:04;;;;;;;12.98;4.90;;;16.60;99.90;;;;;;5104417;28;20239;-59
2024/04/08 03:50:31;;;;;;;11.05;3.42;;;16.50;99.90;;;;;;5100871;28;20201;-58
2024/04/08 03:52:58;;;;;;;15.23;4.00;;;16.40;99.90;;;;;;5123166;22;20614;-58
2024/04/08 03:55:24;;;;;;;12.63;4.18;;;16.30;99.90;;;;;;5043064;28;20745;-60
2024/04/08 03:57:52;;;;;;;8.63;2.92;;;16.30;99.90;;;;;;5043293;28;20204;-61
2024/04/08 04:00:18;;;;;;;11.38;3.40;;;16.10;99.90;;;;;;5041320;28;20621;-59
2024/04/08 04:02:45;;;;;;;11.95;2.45;;;16.10;99.90;;;;;;5039951;28;20202;-59
2024/04/08 04:05:11;;;;;;;10.35;2.70;;;16.00;99.90;;;;;;5040096;28;20663;-59
2024/04/08 04:07:38;;;;;;;6.63;2.25;;;16.00;99.90;;;;;;5043230;28;20201;-59
2024/04/08 04:10:04;;;;;;;12.88;2.63;;;15.90;99.90;;;;;;5043229;28;20293;-59
2024/04/08 04:12:31;;;;;;;8.50;2.47;;;15.80;99.90;;;;;;5039508;28;20221;-59
2024/04/08 04:14:58;;;;;;;10.63;3.00;;;15.70;99.90;;;;;;5039437;28;20673;-58
2024/04/08 04:17:25;;;;;;;8.50;2.60;;;15.60;99.90;;;;;;5041709;28;20286;-59
2024/04/08 04:19:50;;;;;;;11.23;2.83;;;15.50;99.90;;;;;;5042755;28;20205;-59
2024/04/08 04:22:17;;;;;;;8.55;2.60;;;15.50;99.90;;;;;;5041431;28;20206;-59
2024/04/08 04:24:43;;;;;;;11.53;3.00;;;15.40;99.90;;;;;;5039629;28;20582;-59
2024/04/08 04:27:09;;;;;;;11.48;2.47;;;15.30;99.90;;;;;;5042906;28;20210;-60
2024/04/08 04:29:36;;;;;;;10.60;2.93;;;15.20;99.90;;;;;;5046331;28;20202;-59
2024/04/08 04:32:04;;;;;;;13.03;2.80;;;15.10;99.90;;;;;;5046607;28;20214;-60
2024/04/08 04:34:30;;;;;;;10.90;2.67;;;15.00;99.90;;;;;;5043093;28;20632;-59
2024/04/08 04:36:57;;;;;;;8.73;2.47;;;14.90;99.90;;;;;;5041679;28;20204;-59
2024/04/08 04:39:23;;;;;;;10.10;2.97;;;14.90;99.90;;;;;;5043814;28;20233;-59
2024/04/08 04:41:50;;;;;;;12.13;3.37;;;14.90;99.90;;;;;;5042796;28;20241;-59
2024/04/08 04:44:17;;;;;;;10.50;3.10;;;14.90;99.90;;;;;;5044542;28;20569;-59
2024/04/08 04:46:43;;;;;;;7.57;2.70;;;14.80;99.90;;;;;;5045992;28;20256;-60
2024/04/08 04:49:10;;;;;;;13.10;2.77;;;14.70;99.90;;;;;;5045363;28;20581;-60
2024/04/08 04:51:37;;;;;;;9.77;3.10;;;14.70;99.90;;;;;;5042471;28;20210;-59
2024/04/08 04:54:04;;;;;;;10.10;2.93;;;14.70;99.90;;;;;;5042327;28;20234;-59
2024/04/08 04:56:31;;;;;;;6.90;2.40;;;14.70;99.90;;;;;;5045373;28;20193;-58
2024/04/08 04:58:57;;;;;;;10.40;2.83;;;14.80;99.90;;;;;;5045395;28;20736;-59
2024/04/08 05:01:23;;;;;;;7.67;2.40;;;14.70;99.90;;;;;;5043357;28;20202;-59
2024/04/08 05:03:49;;;;;;;10.15;2.28;;;14.80;99.90;;;;;;5041848;28;21461;-58
2024/04/08 05:06:17;;;;;;;11.43;2.90;;;14.80;99.90;;;;;;5042797;28;20229;-59
2024/04/08 05:08:43;;;;;;;11.60;3.07;;;14.80;99.90;;;;;;5045544;28;20210;-58
2024/04/08 05:11:10;;;;;;;8.60;3.07;;;14.90;99.90;;;;;;5045274;28;20229;-59
2024/04/08 05:13:35;;;;;;;10.20;2.67;;;15.00;99.90;;;;;;5041881;28;20222;-59
2024/04/08 05:16:04;;;;;;;7.57;2.50;;;15.00;99.90;;;;;;5041798;28;20268;-59
2024/04/08 05:18:31;;;;;;;10.67;3.17;;;15.10;99.90;;;;;;5044491;28;20210;-59
2024/04/08 05:20:59;;;;;;;7.90;2.70;;;15.30;99.90;;;;;;5045628;28;20299;-59
2024/04/08 05:23:26;;;;;;;12.47;3.03;;;15.40;99.90;;;;;;5042779;28;20225;-58
2024/04/08 05:25:54;;;;;;;19.97;3.70;;;15.60;99.90;;;;;;5041512;28;20653;-60
2024/04/08 05:28:20;;;;;;;12.80;2.83;;;15.70;99.90;;;;;;5042963;28;20234;-59
2024/04/08 05:30:47;;;;;;;15.63;3.10;;;15.80;99.90;;;;;;5045015;28;20286;-59
2024/04/08 05:33:13;;;;;;;19.03;3.73;;;15.80;99.90;;;;;;5044457;28;20229;-59
2024/04/08 05:35:40;;;;;;;14.88;2.75;;;15.80;99.90;;;;;;5041832;28;20718;-59
2024/04/08 05:38:06;;;;;;;12.20;2.42;;;15.70;99.90;;;;;;5040441;28;20293;-60
2024/04/08 05:40:36;;;;;;;13.77;2.75;;;15.80;99.90;;;;;;5044977;28;20313;-59
2024/04/08 05:43:02;;;;;;;18.02;3.67;;;16.00;99.90;;;;;;5044894;28;20213;-59
2024/04/08 05:45:29;;;;;;;13.43;3.23;;;16.10;99.90;;;;;;5041974;28;20228;-59
2024/04/08 05:47:54;;;;;;;17.30;3.42;;;16.30;99.90;;;;;;5041415;28;20213;-60
2024/04/08 05:50:21;;;;;;;15.15;2.85;;;16.50;99.90;;;;;;5042815;28;20206;-60
2024/04/08 05:52:47;;;;;;;10.88;2.75;;;16.80;99.90;;;;;;5044499;28;20271;-58
2024/04/08 05:57:06;;;;;;;16.58;3.00;;;17.00;99.90;;;;;;5543367;25;20675;-59
2024/04/08 05:59:33;;;;;;;14.73;3.78;;;17.50;99.90;;;;;;5543239;25;20253;-60
2024/04/08 06:02:01;;;;;;;14.07;3.10;;;17.90;99.90;;;;;;5543672;25;20512;-59
2024/04/08 06:04:27;;;;;;;11.48;3.05;;;18.30;99.90;;;;;;5543201;25;20350;-59
2024/04/08 06:06:55;;;;;;;14.55;2.50;;;18.60;99.90;;;;;;5543295;25;20239;-57
2024/04/08 06:09:21;;;;;;;10.02;2.67;;;18.90;99.90;;;;;;5523894;21;20307;-59
2024/04/08 06:11:50;;;;;;;14.82;3.38;;;19.10;99.90;;;;;;5457570;26;20241;-58
2024/04/08 06:14:18;;;;;;;14.13;2.95;;;19.40;99.90;;;;;;5452605;26;20793;-59
2024/04/08 06:16:47;;;;;;;12.88;3.05;;;19.70;99.90;;;;;;5456946;26;20234;-59
2024/04/08 06:19:13;;;;;;;13.15;3.15;;;20.00;99.90;;;;;;5452426;26;20237;-59
2024/04/08 06:21:41;;;;;;;16.70;3.10;;;20.40;99.90;;;;;;5455420;26;20267;-58
2024/04/08 06:24:07;;;;;;;17.98;3.17;;;20.80;99.90;;;;;;5454567;26;20267;-59
2024/04/08 06:26:35;;;;;;;13.18;3.63;;;21.10;99.90;;;;;;5454224;26;20734;-59
2024/04/08 06:29:02;;;;;;;13.50;3.35;;;21.50;99.40;;;;;;5453919;26;20609;-59
2024/04/08 06:31:33;;;;;;;19.40;2.97;;;21.80;98.90;;;;;;5450056;26;20240;-59
2024/04/08 06:33:59;;;;;;;14.55;2.50;;;22.10;98.30;;;;;;5447781;26;20372;-59
2024/04/08 06:36:29;;;;;;;13.27;2.63;;;22.50;98.00;;;;;;5462689;26;20233;-59
2024/04/08 06:38:55;;;;;;;20.38;12.88;;;23.00;97.10;;;;;;5458573;26;20280;-59
2024/04/08 06:41:23;;;;;;;10.13;3.05;;;23.30;96.70;;;;;;5451386;26;20237;-59
2024/04/08 06:43:49;;;;;;;12.60;2.95;;;23.50;96.10;;;;;;5457780;26;20241;-59
2024/04/08 06:46:17;;;;;;;12.02;2.47;;;24.00;95.80;;;;;;5452896;26;20337;-59
2024/04/08 06:48:45;;;;;;;17.83;2.97;;;24.50;95.30;;;;;;5455439;26;20237;-59
2024/04/08 06:51:14;;;;;;;19.55;3.47;;;24.90;94.20;;;;;;5453327;26;20237;-59
2024/04/08 06:53:39;;;;;;;10.27;3.33;;;25.20;93.20;;;;;;5455045;26;20225;-59
2024/04/08 06:56:08;;;;;;;10.45;2.60;;;25.30;92.90;;;;;;5454025;26;20593;-59
2024/04/08 06:58:34;;;;;;;10.80;2.75;;;25.30;92.40;;;;;;5447518;26;20243;-57
2024/04/08 07:01:03;;;;;;;16.48;2.75;;;25.30;92.30;;;;;;5459860;26;20275;-59
2024/04/08 07:03:29;;;;;;;9.80;3.05;;;25.30;92.40;;;;;;5449260;26;20384;-59
2024/04/08 07:06:00;;;;;;;13.48;3.42;;;25.40;92.50;;;;;;5457959;26;20572;-59
2024/04/08 07:08:25;;;;;;;7.50;2.45;;;25.60;92.10;;;;;;5433340;26;20246;-58
2024/04/08 07:10:54;;;;;;;11.98;2.80;;;25.90;91.60;;;;;;5432611;26;20234;-60
2024/04/08 07:13:20;;;;;;;9.98;2.65;;;26.30;91.10;;;;;;5447612;26;20230;-58
2024/04/08 07:15:55;;;;;;;9.63;2.72;;;26.80;90.60;;;;;;5432382;26;20277;-58
2024/04/08 07:18:21;;;;;;;10.65;3.08;;;27.40;90.00;;;;;;5433760;26;20294;-59
2024/04/08 07:20:49;;;;;;;11.45;2.92;;;27.80;88.10;;;;;;5437933;26;20350;-59
2024/04/08 07:23:18;;;;;;;16.13;3.13;;;28.30;86.90;;;;;;5436945;26;20685;-58
2024/04/08 07:25:46;;;;;;;11.52;2.70;;;28.80;85.60;;;;;;5439970;26;20567;-58
2024/04/08 07:28:12;;;;;;;9.15;2.80;;;29.20;83.80;;;;;;5437258;26;20230;-59
2024/04/08 07:30:40;;;;;;;11.75;2.45;;;29.60;83.10;;;;;;5438396;26;20286;-58
2024/04/08 07:33:06;;;;;;;12.82;2.72;;;30.10;82.60;;;;;;5437639;26;20766;-58
2024/04/08 07:35:35;;;;;;;9.70;2.83;;;30.50;80.00;;;;;;5432785;26;20239;-58
2024/04/08 07:38:01;;;;;;;10.30;2.53;;;30.80;79.00;;;;;;5431524;26;20231;-58
2024/04/08 07:40:31;;;;;;;9.57;2.53;;;30.80;78.30;;;;;;5446139;26;20237;-58
2024/04/08 07:42:57;;;;;;;12.50;2.75;;;30.80;78.00;;;;;;5431935;26;20235;-59
2024/04/08 07:45:26;;;;;;;18.85;3.53;;;31.10;76.00;;;;;;5446390;26;20234;-58
2024/04/08 07:47:51;;;;;;;22.65;3.65;;;31.20;73.40;;;;;;5441528;26;20230;-58
2024/04/08 07:50:20;;;;;;;15.25;2.50;;;31.50;73.00;;;;;;5435538;26;20288;-59
2024/04/08 07:52:46;;;;;;;16.75;3.13;;;31.70;72.00;;;;;;5431560;26;20231;-59
2024/04/08 07:55:14;;;;;;;7.88;2.78;;;31.80;71.40;;;;;;5446934;26;20278;-58
2024/04/08 07:57:48;;;;;;;16.23;3.28;;;32.00;70.30;;;;;;5431971;26;20227;-58
2024/04/08 08:00:16;;;;;;;6.85;2.50;;;32.10;70.70;;;;;;5431413;26;20231;-58
2024/04/08 08:02:44;;;;;;;12.40;3.08;;;32.30;69.70;;;;;;5437756;26;20272;-58
2024/04/08 08:05:10;;;;;;;13.45;2.80;;;32.40;69.10;;;;;;5437599;26;20276;-59
2024/04/08 08:07:38;;;;;;;8.80;2.45;;;32.40;68.30;;;;;;5437546;26;20703;-58
2024/04/08 08:10:08;;;;;;;17.55;2.67;;;32.40;67.80;;;;;;5437213;26;20803;-58
2024/04/08 08:12:37;;;;;;;10.20;2.90;;;32.30;67.00;;;;;;5432261;26;20231;-59
2024/04/08 08:15:08;;;;;;;12.68;3.08;;;31.90;66.50;;;;;;5443609;26;20272;-62
2024/04/08 08:17:36;;;;;;;10.30;2.53;;;31.20;67.80;;;;;;5432083;26;20488;-58
2024/04/08 08:20:05;;;;;;;10.25;2.42;;;30.70;67.70;;;;;;5442900;26;20234;-59
2024/04/08 08:22:34;;;;;;;15.45;2.60;;;30.10;68.60;;;;;;5432417;26;20727;-59
2024/04/08 08:25:03;;;;;;;12.18;2.70;;;29.70;67.20;;;;;;5443581;26;20764;-60
2024/04/08 08:27:31;;;;;;;10.40;2.40;;;29.30;67.60;;;;;;5433165;26;20274;-59
2024/04/08 08:29:59;;;;;;;10.55;2.45;;;29.10;68.40;;;;;;5441359;26;20280;-59
2024/04/08 08:32:30;;;;;;;11.45;2.60;;;28.80;67.60;;;;;;5433840;26;20230;-59
2024/04/08 08:34:59;;;;;;;8.85;2.33;;;28.60;68.40;;;;;;5430930;26;20720;-59
2024/04/08 08:37:24;;;;;;;11.40;2.75;;;28.20;67.00;;;;;;5445588;26;20289;-59
2024/04/08 08:39:53;;;;;;;13.00;2.42;;;28.00;69.90;;;;;;5439787;26;20715;-59
2024/04/08 08:42:22;;;;;;;10.88;2.50;;;27.80;67.80;;;;;;5435706;26;20280;-59
2024/04/08 08:44:55;;;;;;;15.43;2.72;;;27.70;69.00;;;;;;5439147;26;20338;-58
2024/04/08 08:47:21;;;;;;;8.73;2.05;;;27.60;70.00;;;;;;5435018;26;20230;-59
2024/04/08 08:49:55;;;;;;;8.93;2.05;;;27.50;68.30;;;;;;5438316;26;20268;-59
2024/04/08 08:52:21;;;;;;;12.00;2.83;;;27.50;70.50;;;;;;5435394;26;20264;-59
2024/04/08 08:54:54;;;;;;;15.63;2.72;;;27.50;71.60;;;;;;5438837;26;20233;-58
2024/04/08 08:57:21;;;;;;;3.95;1.95;;;27.60;69.90;;;;;;5435210;26;20230;-58
2024/04/08 08:59:52;;;;;;;7.50;2.92;;;27.60;68.10;;;;;;5438314;26;20242;-58
2024/04/08 09:02:18;;;;;;;7.85;2.28;;;27.60;67.40;;;;;;5435731;26;20229;-58
2024/04/08 09:04:46;;;;;;;10.70;2.33;;;27.60;67.50;;;;;;5437778;26;20334;-57
2024/04/08 09:07:15;;;;;;;13.93;2.65;;;27.60;68.80;;;;;;5436903;26;20234;-58
2024/04/08 09:09:43;;;;;;;8.00;2.33;;;27.60;68.70;;;;;;5430497;26;20670;-58
2024/04/08 09:12:10;;;;;;;13.63;2.45;;;27.50;68.80;;;;;;5444400;26;20302;-58
2024/04/08 09:14:39;;;;;;;8.52;2.38;;;27.40;70.10;;;;;;5431338;26;20242;-58
2024/04/08 09:17:05;;;;;;;10.00;2.28;;;27.30;69.60;;;;;;5442840;26;20256;-58
2024/04/08 09:19:34;;;;;;;8.60;2.47;;;27.30;69.40;;;;;;5432198;26;20280;-58
2024/04/08 09:22:00;;;;;;;10.20;2.58;;;27.30;69.20;;;;;;5442002;26;20271;-58
2024/04/08 09:24:32;;;;;;;22.08;11.70;;;27.40;68.60;;;;;;5434332;26;20234;-58
2024/04/08 09:26:58;;;;;;;10.50;2.70;;;27.40;68.50;;;;;;5431020;26;20231;-58
2024/04/08 09:29:26;;;;;;;12.70;2.53;;;27.50;68.10;;;;;;5444414;26;20589;-58
2024/04/08 09:31:52;;;;;;;9.27;2.30;;;27.60;68.30;;;;;;5439738;26;20233;-58
2024/04/08 09:34:21;;;;;;;8.50;2.63;;;27.70;67.70;;;;;;5435953;26;20272;-58
2024/04/08 09:36:47;;;;;;;9.90;2.40;;;27.70;67.90;;;;;;5438540;26;20268;-58
2024/04/08 09:39:15;;;;;;;9.35;2.55;;;27.70;68.10;;;;;;5436177;26;20242;-58
2024/04/08 09:41:44;;;;;;;8.48;2.10;;;27.80;68.00;;;;;;5430249;26;20230;-59
2024/04/08 09:44:16;;;;;;;10.77;2.38;;;27.80;67.80;;;;;;5443745;26;20237;-59
2024/04/08 09:46:42;;;;;;;12.48;2.53;;;27.90;67.60;;;;;;5429996;26;20234;-59
2024/04/08 09:49:12;;;;;;;8.10;2.47;;;28.00;67.20;;;;;;5442441;26;20238;-59
2024/04/08 09:51:40;;;;;;;11.60;2.35;;;28.10;65.40;;;;;;5430586;26;20235;-59
2024/04/08 09:54:10;;;;;;;13.18;2.10;;;28.20;66.30;;;;;;5442784;26;20305;-58
2024/04/08 09:56:37;;;;;;;6.25;2.22;;;28.30;66.50;;;;;;5431354;26;20280;-59
2024/04/08 09:59:15;;;;;;;10.27;2.20;;;28.30;65.70;;;;;;5441323;26;20234;-57
2024/04/08 10:01:43;;;;;;;9.65;2.50;;;28.40;64.50;;;;;;5429898;26;20845;-58
2024/04/08 10:04:15;;;;;;;11.05;2.25;;;28.50;64.50;;;;;;5442599;26;20241;-57
2024/04/08 10:06:43;;;;;;;17.85;2.50;;;28.40;64.10;;;;;;5430106;26;20600;-58
2024/04/08 10:09:12;;;;;;;7.22;2.25;;;28.40;63.10;;;;;;5442091;26;20245;-57
2024/04/08 10:11:38;;;;;;;9.02;2.45;;;28.50;63.30;;;;;;5430097;26;20247;-58
2024/04/08 10:14:17;;;;;;;7.20;1.98;;;28.50;61.90;;;;;;5429470;26;20277;-59
2024/04/08 10:16:43;;;;;;;6.25;2.70;;;28.60;61.20;;;;;;5429742;26;20711;-57
2024/04/08 10:19:13;;;;;;;11.52;2.65;;;28.70;59.80;;;;;;5442234;26;20279;-57
2024/04/08 10:21:39;;;;;;;8.30;1.85;;;28.70;59.90;;;;;;5428348;26;20262;-61
2024/04/08 10:24:07;;;;;;;9.13;2.00;;;28.80;59.50;;;;;;5422147;26;20756;-59
2024/04/08 10:26:36;;;;;;;9.85;2.50;;;28.90;59.60;;;;;;5433213;26;20231;-59
2024/04/08 10:29:06;;;;;;;13.73;2.08;;;28.90;59.60;;;;;;5435202;26;20630;-59
2024/04/08 10:31:35;;;;;;;7.53;2.00;;;28.90;58.50;;;;;;5431256;26;20799;-60
2024/04/08 10:34:03;;;;;;;7.25;2.20;;;28.90;59.00;;;;;;5429132;26;20234;-60
2024/04/08 10:36:29;;;;;;;12.15;3.35;;;28.90;58.60;;;;;;5432187;26;20274;-62
2024/04/08 10:38:57;;;;;;;5.70;1.85;;;29.00;58.20;;;;;;5434591;26;20281;-60
2024/04/08 10:41:23;;;;;;;8.60;2.40;;;29.20;56.30;;;;;;5433462;26;20272;-60
2024/04/08 10:43:51;;;;;;;8.30;2.20;;;29.30;56.70;;;;;;5432120;26;20234;-60
2024/04/08 10:46:18;;;;;;;8.10;1.83;;;29.30;55.90;;;;;;5432586;26;20265;-60
2024/04/08 10:48:49;;;;;;;5.68;2.00;;;29.30;55.50;;;;;;5431819;26;20242;-60
2024/04/08 10:51:16;;;;;;;9.02;2.25;;;29.40;56.40;;;;;;5432654;26;20594;-60
2024/04/08 10:53:44;;;;;;;6.22;2.20;;;29.50;56.00;;;;;;5438393;26;20249;-59
2024/04/08 10:56:10;;;;;;;14.43;2.60;;;29.50;56.10;;;;;;5437726;26;20543;-59
2024/04/08 10:58:39;;;;;;;11.98;2.63;;;29.70;55.50;;;;;;5433127;26;20720;-61
2024/04/08 11:01:05;;;;;;;5.80;2.05;;;29.80;55.00;;;;;;5444135;26;20617;-60
2024/04/08 11:03:34;;;;;;;6.43;2.08;;;29.90;54.20;;;;;;5434396;26;20250;-60
2024/04/08 11:06:02;;;;;;;10.32;2.78;;;30.10;54.80;;;;;;5442493;26;20272;-60
2024/04/08 11:08:31;;;;;;;11.35;2.78;;;30.10;57.50;;;;;;5435216;26;20238;-59
2024/04/08 11:10:59;;;;;;;6.53;1.83;;;30.10;56.90;;;;;;5432266;26;20235;-59
2024/04/08 11:13:27;;;;;;;8.23;2.10;;;30.10;56.30;;;;;;5433765;26;20243;-60
2024/04/08 11:15:53;;;;;;;9.38;2.38;;;30.00;56.30;;;;;;5438051;26;20230;-59
2024/04/08 11:18:22;;;;;;;9.32;2.38;;;29.90;55.00;;;;;;5436884;26;20778;-59
2024/04/08 11:20:48;;;;;;;7.10;2.03;;;29.80;56.00;;;;;;5438677;26;20730;-59
2024/04/08 11:23:20;;;;;;;9.50;2.40;;;29.80;56.70;;;;;;5438231;26;20607;-59
2024/04/08 11:25:47;;;;;;;5.88;1.90;;;29.70;57.30;;;;;;5432073;26;20270;-59
2024/04/08 11:28:15;;;;;;;8.35;2.28;;;29.70;57.10;;;;;;5444977;26;20704;-61
2024/04/08 11:30:43;;;;;;;6.63;1.73;;;29.70;57.00;;;;;;5432266;26;20235;-61
2024/04/08 11:33:09;;;;;;;11.50;2.33;;;29.80;56.70;;;;;;5443574;26;20320;-61
2024/04/08 11:35:37;;;;;;;10.45;1.90;;;30.10;56.90;;;;;;5434138;26;20233;-60
2024/04/08 11:38:04;;;;;;;9.23;2.22;;;30.30;55.30;;;;;;5442709;26;20276;-60
2024/04/08 11:40:35;;;;;;;6.07;2.30;;;30.60;53.70;;;;;;5435054;26;20242;-60
2024/04/08 11:43:00;;;;;;;8.15;2.40;;;30.90;52.00;;;;;;5431670;26;20562;-57
2024/04/08 11:45:31;;;;;;;7.35;1.90;;;31.10;52.50;;;;;;5431105;26;20806;-59
2024/04/08 11:47:57;;;;;;;8.15;1.92;;;31.30;52.60;;;;;;5426017;26;20896;-60
2024/04/08 11:50:25;;;;;;;11.90;2.17;;;31.30;54.30;;;;;;5422215;26;20309;-58
2024/04/08 11:52:52;;;;;;;8.23;2.08;;;31.10;54.30;;;;;;5429072;26;20270;-60
2024/04/08 11:55:21;;;;;;;9.07;2.63;;;30.90;55.50;;;;;;5437711;26;20587;-59
2024/04/08 11:57:49;;;;;;;8.77;2.60;;;30.80;54.70;;;;;;5423304;26;20273;-59
2024/04/08 12:00:20;;;;;;;11.95;2.47;;;30.70;55.10;;;;;;5430801;26;20306;-58
2024/04/08 12:02:46;;;;;;;12.38;2.17;;;30.90;56.80;;;;;;5422914;26;20237;-59
2024/04/08 12:05:16;;;;;;;10.65;2.75;;;30.80;54.60;;;;;;5436907;26;20720;-58
2024/04/08 12:07:42;;;;;;;11.60;2.28;;;30.90;54.60;;;;;;5422676;26;20663;-59
2024/04/08 12:10:12;;;;;;;8.07;2.10;;;31.10;56.00;;;;;;5437850;26;20350;-60
2024/04/08 12:12:38;;;;;;;9.20;1.98;;;31.20;55.90;;;;;;5432801;26;20712;-61
2024/04/08 12:15:10;;;;;;;12.70;2.83;;;31.30;53.20;;;;;;5442318;26;20272;-60
2024/04/08 12:17:35;;;;;;;9.95;2.53;;;31.10;54.20;;;;;;5451829;26;20229;-59
2024/04/08 12:20:04;;;;;;;10.98;2.47;;;31.10;54.80;;;;;;5451688;26;20330;-59
2024/04/08 12:22:30;;;;;;;9.43;2.30;;;30.90;53.40;;;;;;5452146;26;20230;-60
2024/04/08 12:24:58;;;;;;;10.85;2.33;;;30.80;54.10;;;;;;5452204;26;20269;-60
2024/04/08 12:27:27;;;;;;;7.82;2.47;;;30.90;52.70;;;;;;5451377;26;20273;-59
2024/04/08 12:29:56;;;;;;;6.20;2.30;;;30.90;54.40;;;;;;5451388;26;20285;-60
2024/04/08 12:32:24;;;;;;;4.70;1.90;;;31.00;54.70;;;;;;5451512;26;20233;-59
2024/04/08 12:34:53;;;;;;;6.55;2.20;;;31.20;53.50;;;;;;5451894;26;20264;-60
2024/04/08 12:37:19;;;;;;;6.82;2.15;;;31.10;53.00;;;;;;5451733;26;20238;-59
2024/04/08 12:39:47;;;;;;;10.73;2.17;;;31.00;53.10;;;;;;5451254;26;20346;-60
2024/04/08 12:42:13;;;;;;;7.55;2.38;;;30.90;52.90;;;;;;5452202;26;20234;-60